createdAt,value
2022-10-02T00:00:55.020Z,2.63
2022-10-02T00:05:04.647Z,2.55
2022-10-02T00:09:11.080Z,2.85
2022-10-02T00:13:25.328Z,2.83
2022-10-02T00:17:34.504Z,3.05
2022-10-02T00:21:55.939Z,2.97
2022-10-02T00:26:05.454Z,2.42
2022-10-02T00:30:12.763Z,3.13
2022-10-02T00:34:35.559Z,2.60
2022-10-02T00:38:59.940Z,2.97
2022-10-02T00:43:29.126Z,2.65
2022-10-02T00:47:38.615Z,2.28
2022-10-02T00:51:47.169Z,2.67
2022-10-02T00:56:14.550Z,2.17
2022-10-02T01:00:19.394Z,2.83
2022-10-02T01:04:31.202Z,2.50
2022-10-02T01:08:35.228Z,2.35
2022-10-02T01:12:38.757Z,2.33
2022-10-02T01:16:44.684Z,2.53
2022-10-02T01:20:52.571Z,2.60
2022-10-02T01:24:58.058Z,2.25
2022-10-02T01:29:01.034Z,1.92
2022-10-02T01:33:05.786Z,2.35
2022-10-02T01:37:09.298Z,2.90
2022-10-02T01:41:12.777Z,2.25
2022-10-02T01:45:15.540Z,2.55
2022-10-02T01:49:45.409Z,2.25
2022-10-02T01:54:03.598Z,2.35
2022-10-02T01:58:29.969Z,3.20
2022-10-02T02:02:38.377Z,2.05
2022-10-02T02:06:59.350Z,2.05
2022-10-02T02:11:15.526Z,2.63
2022-10-02T02:15:28.925Z,1.95
2022-10-02T02:19:37.486Z,1.83
2022-10-02T02:23:41.976Z,2.28
2022-10-02T02:27:50.988Z,2.40
2022-10-02T02:31:58.033Z,2.55
2022-10-02T02:36:07.434Z,2.15
2022-10-02T02:40:16.342Z,2.10
2022-10-02T02:44:25.673Z,2.20
2022-10-02T02:48:36.907Z,1.73
2022-10-02T02:52:49.837Z,2.20
2022-10-02T02:56:54.846Z,2.17
2022-10-02T03:00:59.158Z,2.03
2022-10-02T03:05:02.005Z,2.03
2022-10-02T03:09:11.274Z,2.47
2022-10-02T03:14:02.423Z,2.30
2022-10-02T03:18:26.460Z,2.13
2022-10-02T03:22:56.998Z,2.10
2022-10-02T03:27:11.523Z,2.90
2022-10-02T03:31:16.690Z,3.00
2022-10-02T03:35:22.588Z,2.58
2022-10-02T03:39:26.301Z,2.20
2022-10-02T03:43:30.681Z,2.65
2022-10-02T03:47:33.401Z,2.67
2022-10-02T03:51:36.177Z,2.22
2022-10-02T03:55:42.901Z,2.92
2022-10-02T04:04:05.760Z,2.15
2022-10-02T04:08:17.972Z,2.50
2022-10-02T04:12:32.248Z,2.20
2022-10-02T04:16:39.096Z,2.22
2022-10-02T04:25:17.786Z,2.20
2022-10-02T04:29:28.761Z,2.50
2022-10-02T04:33:36.377Z,2.17
2022-10-02T04:38:07.158Z,2.35
2022-10-02T04:42:25.312Z,2.58
2022-10-02T04:46:52.732Z,2.33
2022-10-02T04:51:21.046Z,2.17
2022-10-02T04:55:29.410Z,2.13
2022-10-02T04:59:38.038Z,2.17
2022-10-02T05:04:03.179Z,3.05
2022-10-02T05:08:28.188Z,1.90
2022-10-02T05:12:52.167Z,2.00
2022-10-02T05:17:08.469Z,3.42
2022-10-02T05:21:23.269Z,2.92
2022-10-02T05:25:47.042Z,1.92
2022-10-02T05:30:09.785Z,2.50
2022-10-02T05:34:36.385Z,2.40
2022-10-02T05:38:47.961Z,2.35
2022-10-02T05:43:06.437Z,2.15
2022-10-02T05:47:26.457Z,2.25
2022-10-02T05:51:41.730Z,3.10
2022-10-02T05:55:59.118Z,3.30
2022-10-02T06:00:13.963Z,2.92
2022-10-02T06:04:39.714Z,2.38
2022-10-02T06:08:52.155Z,3.40
2022-10-02T06:13:23.614Z,3.40
2022-10-02T06:17:28.994Z,3.30
2022-10-02T06:21:35.982Z,3.00
2022-10-02T06:25:52.227Z,4.50
2022-10-02T06:29:59.819Z,3.30
2022-10-02T06:34:02.654Z,3.88
2022-10-02T06:38:31.569Z,2.85
2022-10-02T06:42:41.265Z,3.25
2022-10-02T06:47:08.964Z,3.08
2022-10-02T06:51:24.754Z,3.08
2022-10-02T06:55:44.363Z,2.47
2022-10-02T06:59:55.943Z,3.00
2022-10-02T07:04:36.590Z,2.45
2022-10-02T07:09:13.159Z,2.70
2022-10-02T07:13:18.721Z,2.90
2022-10-02T07:17:43.097Z,2.60
2022-10-02T07:22:43.343Z,2.90
2022-10-02T07:27:05.498Z,2.63
2022-10-02T07:31:26.158Z,3.10
2022-10-02T07:35:53.597Z,2.92
2022-10-02T07:40:11.733Z,3.22
2022-10-02T07:44:42.005Z,3.58
2022-10-02T07:48:53.033Z,4.57
2022-10-02T07:53:33.541Z,3.45
2022-10-02T07:58:08.779Z,3.47
2022-10-02T08:02:59.104Z,2.72
2022-10-02T08:07:04.308Z,2.90
2022-10-02T08:11:12.893Z,3.97
2022-10-02T08:15:19.205Z,4.18
2022-10-02T08:19:45.322Z,3.25
2022-10-02T08:24:06.483Z,3.70
2022-10-02T08:28:32.039Z,3.05
2022-10-02T08:32:36.813Z,2.80
2022-10-02T08:36:59.589Z,4.13
2022-10-02T08:41:40.274Z,4.32
2022-10-02T08:46:13.959Z,3.58
2022-10-02T08:50:31.986Z,4.03
2022-10-02T08:54:59.875Z,5.63
2022-10-02T08:59:27.701Z,4.82
2022-10-02T09:03:41.269Z,6.25
2022-10-02T09:08:08.481Z,5.85
2022-10-02T09:12:48.273Z,6.70
2022-10-02T09:17:13.211Z,6.38
2022-10-02T09:21:19.670Z,6.20
2022-10-02T09:25:47.157Z,7.30
2022-10-02T09:30:14.696Z,7.57
2022-10-02T09:34:23.197Z,5.55
2022-10-02T09:38:44.080Z,4.25
2022-10-02T09:43:11.908Z,6.05
2022-10-02T09:47:35.730Z,4.78
2022-10-02T09:51:52.510Z,4.43
2022-10-02T09:56:15.856Z,4.25
2022-10-02T10:00:38.382Z,5.28
2022-10-02T10:05:08.985Z,4.63
2022-10-02T10:09:17.847Z,4.38
2022-10-02T10:13:41.720Z,4.60
2022-10-02T10:18:04.022Z,3.65
2022-10-02T10:22:51.857Z,3.97
2022-10-02T10:27:00.364Z,3.78
2022-10-02T10:31:35.499Z,5.30
2022-10-02T10:35:57.154Z,3.93
2022-10-02T10:40:06.859Z,4.75
2022-10-02T10:44:15.494Z,4.10
2022-10-02T10:48:29.829Z,4.18
2022-10-02T10:53:04.259Z,3.80
2022-10-02T10:57:31.313Z,4.47
2022-10-02T11:06:51.859Z,4.07
2022-10-02T11:11:24.394Z,3.10
2022-10-02T11:15:33.659Z,3.03
2022-10-02T11:19:41.284Z,3.95
2022-10-02T11:24:10.318Z,4.00
2022-10-02T11:28:44.960Z,3.60
2022-10-02T11:33:12.455Z,3.10
2022-10-02T11:37:42.741Z,3.50
2022-10-02T11:42:19.271Z,2.75
2022-10-02T11:46:52.256Z,2.75
2022-10-02T11:51:10.598Z,2.53
2022-10-02T11:55:44.396Z,2.72
2022-10-02T12:00:05.861Z,2.33
2022-10-02T12:05:03.908Z,3.10
2022-10-02T12:09:30.522Z,2.15
2022-10-02T12:14:07.576Z,2.00
2022-10-02T12:18:36.883Z,2.17
2022-10-02T12:23:08.785Z,3.15
2022-10-02T12:27:25.362Z,3.50
2022-10-02T12:31:57.816Z,3.83
2022-10-02T12:36:10.152Z,4.30
2022-10-02T12:40:21.721Z,3.97
2022-10-02T12:44:39.625Z,3.65
2022-10-02T12:49:00.849Z,3.65
2022-10-02T12:53:15.861Z,3.30
2022-10-02T12:57:53.256Z,2.90
2022-10-02T13:02:42.927Z,3.22
2022-10-02T13:06:52.137Z,2.80
2022-10-02T13:11:13.708Z,1.80
2022-10-02T13:15:43.203Z,1.70
2022-10-02T13:19:53.798Z,1.70
2022-10-02T13:24:11.521Z,1.90
2022-10-02T13:28:25.526Z,1.60
2022-10-02T13:33:06.082Z,2.25
2022-10-02T13:37:17.708Z,2.72
2022-10-02T13:41:40.752Z,1.98
2022-10-02T13:46:00.539Z,2.20
2022-10-02T13:50:29.658Z,2.92
2022-10-02T13:55:02.752Z,3.45
2022-10-02T13:59:11.197Z,2.25
2022-10-02T14:03:32.192Z,2.40
2022-10-02T14:07:56.844Z,2.53
2022-10-02T14:12:23.417Z,2.22
2022-10-02T14:16:30.700Z,1.95
2022-10-02T14:20:39.455Z,2.25
2022-10-02T14:25:01.316Z,1.77
2022-10-02T14:29:26.292Z,1.80
2022-10-02T14:33:54.343Z,2.27
2022-10-02T14:38:16.673Z,1.33
2022-10-02T14:42:28.542Z,1.42
2022-10-02T14:47:18.958Z,1.40
2022-10-02T14:51:40.114Z,1.58
2022-10-02T14:56:21.788Z,1.52
2022-10-02T15:00:25.686Z,1.42
2022-10-02T15:05:04.239Z,1.48
2022-10-02T15:09:16.655Z,1.60
2022-10-02T15:13:40.123Z,1.10
2022-10-02T15:18:00.448Z,2.00
2022-10-02T15:22:20.343Z,1.42
2022-10-02T15:26:40.857Z,1.33
2022-10-02T15:31:10.420Z,1.30
2022-10-02T15:35:50.821Z,1.40
2022-10-02T15:40:19.303Z,1.23
2022-10-02T15:44:50.059Z,1.67
2022-10-02T15:49:33.321Z,1.40
2022-10-02T15:53:58.254Z,1.30
2022-10-02T15:58:26.255Z,1.55
2022-10-02T16:02:51.693Z,1.70
2022-10-02T16:07:20.153Z,2.63
2022-10-02T16:11:53.689Z,1.90
2022-10-02T16:16:32.261Z,2.30
2022-10-02T16:20:46.610Z,3.30
2022-10-02T16:25:23.451Z,4.43
2022-10-02T16:29:52.373Z,4.20
2022-10-02T16:34:20.263Z,3.65
2022-10-02T16:39:01.122Z,3.95
2022-10-02T16:43:23.013Z,4.03
2022-10-02T16:47:50.500Z,4.00
2022-10-02T16:52:27.185Z,4.20
2022-10-02T16:56:40.977Z,4.18
2022-10-02T17:00:59.389Z,3.95
2022-10-02T17:05:20.224Z,4.03
2022-10-02T17:09:34.965Z,3.10
2022-10-02T17:14:14.776Z,3.70
2022-10-02T17:18:42.126Z,3.25
2022-10-02T17:23:12.150Z,3.55
2022-10-02T17:27:42.423Z,3.10
2022-10-02T17:31:58.542Z,4.22
2022-10-02T17:36:23.972Z,2.92
2022-10-02T17:41:00.618Z,3.83
2022-10-02T17:45:29.019Z,4.13
2022-10-02T17:49:41.075Z,3.90
2022-10-02T17:54:18.168Z,3.90
2022-10-02T17:58:35.775Z,4.30
2022-10-02T18:03:11.144Z,4.80
2022-10-02T18:07:44.559Z,4.57
2022-10-02T18:12:02.802Z,3.78
2022-10-02T18:16:25.103Z,4.15
2022-10-02T18:20:34.265Z,4.10
2022-10-02T18:24:37.421Z,4.20
2022-10-02T18:29:02.279Z,4.32
2022-10-02T18:33:25.153Z,6.25
2022-10-02T18:38:05.584Z,5.20
2022-10-02T18:42:42.118Z,5.03
2022-10-02T18:47:21.804Z,4.53
2022-10-02T18:51:46.034Z,5.43
2022-10-02T18:56:04.141Z,4.63
2022-10-02T19:00:18.852Z,4.20
2022-10-02T19:04:40.463Z,4.13
2022-10-02T19:09:05.279Z,4.22
2022-10-02T19:13:21.793Z,3.80
2022-10-02T19:17:31.033Z,4.18
2022-10-02T19:21:36.254Z,3.90
2022-10-02T19:25:46.291Z,4.18
2022-10-02T19:29:57.335Z,4.22
2022-10-02T19:34:10.974Z,4.72
2022-10-02T19:38:25.995Z,4.18
2022-10-02T19:42:34.326Z,4.57
2022-10-02T19:46:48.599Z,4.50
2022-10-02T19:50:58.397Z,3.90
2022-10-02T19:55:07.265Z,4.13
2022-10-02T19:59:43.001Z,4.32
2022-10-02T20:03:57.601Z,4.47
2022-10-02T20:08:07.253Z,3.65
2022-10-02T20:12:15.036Z,7.43
2022-10-02T20:16:41.265Z,4.57
2022-10-02T20:20:47.143Z,4.10
2022-10-02T20:25:12.369Z,3.80
2022-10-02T20:29:21.826Z,3.35
2022-10-02T20:33:56.709Z,3.85
2022-10-02T20:38:13.409Z,3.45
2022-10-02T20:42:25.431Z,2.58
2022-10-02T20:46:35.883Z,2.70
2022-10-02T20:51:06.912Z,2.95
2022-10-02T20:55:31.465Z,2.72
2022-10-02T21:00:03.342Z,2.30
2022-10-02T21:04:35.691Z,1.92
2022-10-02T21:09:10.775Z,2.08
2022-10-02T21:13:24.418Z,2.00
2022-10-02T21:17:53.611Z,2.15
2022-10-02T21:22:23.271Z,2.25
2022-10-02T21:26:51.956Z,2.55
2022-10-02T21:31:06.726Z,2.35
2022-10-02T21:35:31.288Z,2.83
2022-10-02T21:39:55.878Z,3.15
2022-10-02T21:44:42.412Z,2.67
2022-10-02T21:49:08.807Z,2.63
2022-10-02T21:53:36.842Z,2.72
2022-10-02T21:57:55.035Z,3.28
2022-10-02T22:02:24.105Z,2.97
2022-10-02T22:06:36.425Z,2.70
2022-10-02T22:10:57.213Z,2.45
2022-10-02T22:15:20.143Z,2.83
2022-10-02T22:19:30.883Z,3.00
2022-10-02T22:23:48.730Z,3.25
2022-10-02T22:28:14.594Z,2.67
2022-10-02T22:32:54.771Z,2.67
2022-10-02T22:37:00.413Z,2.17
2022-10-02T22:41:24.556Z,2.50
2022-10-02T22:45:55.564Z,2.42
2022-10-02T22:50:06.451Z,2.30
2022-10-02T22:54:21.285Z,2.28
2022-10-02T22:58:59.743Z,2.40
2022-10-02T23:03:19.395Z,2.75
2022-10-02T23:07:36.579Z,2.88
2022-10-02T23:12:07.508Z,3.05
2022-10-02T23:16:35.183Z,3.08
2022-10-02T23:21:04.589Z,3.25
2022-10-02T23:25:41.504Z,2.85
2022-10-02T23:29:54.047Z,3.30
2022-10-02T23:34:18.064Z,2.95
2022-10-02T23:39:04.117Z,2.50
2022-10-02T23:43:09.703Z,2.75
2022-10-02T23:47:25.698Z,2.33
2022-10-02T23:51:50.625Z,2.30
2022-10-02T23:56:00.139Z,2.72
